createdAt,value
2024-02-29T00:00:25.717Z,92791.00
2024-02-29T00:01:25.863Z,92791.00
2024-02-29T00:02:25.877Z,92789.00
2024-02-29T00:03:25.944Z,92788.00
2024-02-29T00:04:26.045Z,92783.00
2024-02-29T00:05:26.101Z,92785.00
2024-02-29T00:06:26.188Z,92785.00
2024-02-29T00:07:26.262Z,92787.00
2024-02-29T00:08:26.387Z,92786.00
2024-02-29T00:09:26.412Z,92787.00
2024-02-29T00:10:26.523Z,92789.00
2024-02-29T00:11:26.595Z,92789.00
2024-02-29T00:12:26.651Z,92788.00
2024-02-29T00:13:26.764Z,92789.00
2024-02-29T00:14:26.815Z,92787.00
2024-02-29T00:15:26.906Z,92784.00
2024-02-29T00:16:26.983Z,92785.00
2024-02-29T00:17:27.089Z,92782.00
2024-02-29T00:18:27.140Z,92780.00
2024-02-29T00:19:27.234Z,92782.00
2024-02-29T00:20:27.309Z,92783.00
2024-02-29T00:21:27.402Z,92781.00
2024-02-29T00:22:27.478Z,92781.00
2024-02-29T00:23:27.549Z,92776.00
2024-02-29T00:24:27.789Z,92774.00
2024-02-29T00:25:27.703Z,92770.00
2024-02-29T00:26:27.785Z,92772.00
2024-02-29T00:27:28.036Z,92773.00
2024-02-29T00:28:27.956Z,92770.00
2024-02-29T00:29:28.038Z,92773.00
2024-02-29T00:30:28.197Z,92774.00
2024-02-29T00:31:28.197Z,92775.00
2024-02-29T00:32:28.320Z,92777.00
2024-02-29T00:33:28.391Z,92773.00
2024-02-29T00:34:28.452Z,92773.00
2024-02-29T00:35:28.537Z,92774.00
2024-02-29T00:36:28.698Z,92774.00
2024-02-29T00:37:28.680Z,92772.00
2024-02-29T00:38:28.740Z,92771.00
2024-02-29T00:39:28.862Z,92769.00
2024-02-29T00:40:28.896Z,92767.00
2024-02-29T00:41:28.970Z,92765.00
2024-02-29T00:42:29.101Z,92766.00
2024-02-29T00:43:29.147Z,92767.00
2024-02-29T00:44:29.247Z,92763.00
2024-02-29T00:45:29.309Z,92765.00
2024-02-29T00:46:29.382Z,92761.00
2024-02-29T00:47:29.478Z,92760.00
2024-02-29T00:48:29.575Z,92760.00
2024-02-29T00:49:29.620Z,92756.00
2024-02-29T00:50:29.695Z,92753.00
2024-02-29T00:51:29.997Z,92752.00
2024-02-29T00:52:29.866Z,92752.00
2024-02-29T00:53:29.937Z,92749.00
2024-02-29T00:54:30.051Z,92746.00
2024-02-29T00:55:30.099Z,92746.00
2024-02-29T00:56:30.186Z,92748.00
2024-02-29T00:57:30.291Z,92748.00
2024-02-29T00:58:30.353Z,92749.00
2024-02-29T00:59:30.443Z,92745.00
2024-02-29T01:00:30.574Z,92747.00
2024-02-29T01:01:30.877Z,92748.00
2024-02-29T01:02:30.683Z,92746.00
2024-02-29T01:03:33.313Z,92744.00
2024-02-29T01:04:30.799Z,92742.00
2024-02-29T01:05:30.816Z,92741.00
2024-02-29T01:06:30.878Z,92743.00
2024-02-29T01:07:30.837Z,92736.00
2024-02-29T01:08:30.850Z,92742.00
2024-02-29T01:09:30.950Z,92741.00
2024-02-29T01:10:30.907Z,92741.00
2024-02-29T01:11:30.957Z,92742.00
2024-02-29T01:12:30.959Z,92741.00
2024-02-29T01:13:30.934Z,92741.00
2024-02-29T01:14:30.945Z,92741.00
2024-02-29T01:15:30.993Z,92738.00
2024-02-29T01:16:30.973Z,92739.00
2024-02-29T01:17:31.001Z,92738.00
2024-02-29T01:18:30.996Z,92737.00
2024-02-29T01:19:31.012Z,92734.00
2024-02-29T01:20:31.032Z,92733.00
2024-02-29T01:21:31.163Z,92733.00
2024-02-29T01:22:31.175Z,92730.00
2024-02-29T01:23:31.261Z,92729.00
2024-02-29T01:24:31.358Z,92727.00
2024-02-29T01:25:31.412Z,92727.00
2024-02-29T01:26:31.507Z,92727.00
2024-02-29T01:27:31.604Z,92725.00
2024-02-29T01:28:31.672Z,92725.00
2024-02-29T01:29:31.747Z,92724.00
2024-02-29T01:30:31.870Z,92724.00
2024-02-29T01:31:31.913Z,92724.00
2024-02-29T01:32:35.287Z,92721.00
2024-02-29T01:33:33.027Z,92723.00
2024-02-29T01:34:32.038Z,92720.00
2024-02-29T01:35:32.057Z,92719.00
2024-02-29T01:36:32.072Z,92717.00
2024-02-29T01:37:32.090Z,92718.00
2024-02-29T01:38:32.092Z,92716.00
2024-02-29T01:39:32.131Z,92714.00
2024-02-29T01:40:32.157Z,92711.00
2024-02-29T01:41:32.203Z,92711.00
2024-02-29T01:42:32.308Z,92709.00
2024-02-29T01:43:32.384Z,92710.00
2024-02-29T01:44:32.464Z,92707.00
2024-02-29T01:45:32.699Z,92706.00
2024-02-29T01:46:32.684Z,92702.00
2024-02-29T01:47:32.730Z,92701.00
2024-02-29T01:48:32.842Z,92700.00
2024-02-29T01:49:32.893Z,92699.00
2024-02-29T01:50:33.011Z,92697.00
2024-02-29T01:51:33.115Z,92695.00
2024-02-29T01:52:33.157Z,92694.00
2024-02-29T01:53:34.671Z,92694.00
2024-02-29T01:54:33.362Z,92691.00
2024-02-29T01:55:33.415Z,92695.00
2024-02-29T01:56:33.488Z,92694.00
2024-02-29T01:57:33.628Z,92693.00
2024-02-29T01:58:33.641Z,92691.00
2024-02-29T01:59:33.728Z,92690.00
2024-02-29T02:00:33.831Z,92687.00
2024-02-29T02:01:33.908Z,92687.00
2024-02-29T02:02:33.919Z,92686.00
2024-02-29T02:03:34.050Z,92687.00
2024-02-29T02:04:34.056Z,92689.00
2024-02-29T02:05:34.120Z,92686.00
2024-02-29T02:06:34.202Z,92684.00
2024-02-29T02:07:34.225Z,92686.00
2024-02-29T02:08:34.285Z,92683.00
2024-02-29T02:09:34.364Z,92682.00
2024-02-29T02:10:34.398Z,92683.00
2024-02-29T02:11:34.462Z,92680.00
2024-02-29T02:12:34.602Z,92678.00
2024-02-29T02:13:34.635Z,92676.00
2024-02-29T02:14:34.729Z,92675.00
2024-02-29T02:15:34.828Z,92673.00
2024-02-29T02:16:34.908Z,92672.00
2024-02-29T02:17:35.026Z,92667.00
2024-02-29T02:18:35.124Z,92668.00
2024-02-29T02:19:35.172Z,92670.00
2024-02-29T02:20:35.252Z,92673.00
2024-02-29T02:21:35.365Z,92672.00
2024-02-29T02:22:35.410Z,92671.00
2024-02-29T02:23:35.494Z,92670.00
2024-02-29T02:24:35.737Z,92667.00
2024-02-29T02:25:35.651Z,92664.00
2024-02-29T02:26:35.737Z,92663.00
2024-02-29T02:27:35.864Z,92661.00
2024-02-29T02:28:35.919Z,92663.00
2024-02-29T02:29:36.013Z,92662.00
2024-02-29T02:30:36.129Z,92660.00
2024-02-29T02:31:36.180Z,92658.00
2024-02-29T02:32:36.269Z,92658.00
2024-02-29T02:33:36.383Z,92655.00
2024-02-29T02:34:36.448Z,92654.00
2024-02-29T02:35:36.539Z,92650.00
2024-02-29T02:36:36.689Z,92656.00
2024-02-29T02:37:36.692Z,92654.00
2024-02-29T02:38:36.784Z,92654.00
2024-02-29T02:39:36.890Z,92653.00
2024-02-29T02:40:36.969Z,92650.00
2024-02-29T02:41:37.059Z,92652.00
2024-02-29T02:42:37.178Z,92653.00
2024-02-29T02:43:37.199Z,92650.00
2024-02-29T02:44:37.296Z,92649.00
2024-02-29T02:45:37.388Z,92649.00
2024-02-29T02:46:37.453Z,92650.00
2024-02-29T02:47:37.576Z,92647.00
2024-02-29T02:48:37.672Z,92648.00
2024-02-29T02:49:37.734Z,92645.00
2024-02-29T02:50:37.856Z,92646.00
2024-02-29T02:51:37.889Z,92644.00
2024-02-29T02:52:37.976Z,92646.00
2024-02-29T02:53:38.048Z,92640.00
2024-02-29T02:54:38.134Z,92641.00
2024-02-29T02:55:38.209Z,92641.00
2024-02-29T02:56:38.301Z,92638.00
2024-02-29T02:57:38.416Z,92637.00
2024-02-29T02:58:38.462Z,92637.00
2024-02-29T02:59:38.570Z,92634.00
2024-02-29T03:00:38.657Z,92634.00
2024-02-29T03:01:38.753Z,92636.00
2024-02-29T03:02:38.807Z,92634.00
2024-02-29T03:03:38.863Z,92632.00
2024-02-29T03:04:38.927Z,92630.00
2024-02-29T03:05:38.962Z,92630.00
2024-02-29T03:06:39.033Z,92631.00
2024-02-29T03:07:39.100Z,92631.00
2024-02-29T03:08:39.168Z,92629.00
2024-02-29T03:09:39.281Z,92629.00
2024-02-29T03:10:39.348Z,92629.00
2024-02-29T03:11:39.425Z,92631.00
2024-02-29T03:12:39.553Z,92630.00
2024-02-29T03:13:39.613Z,92628.00
2024-02-29T03:14:39.672Z,92627.00
2024-02-29T03:15:39.761Z,92628.00
2024-02-29T03:16:40.385Z,92632.00
2024-02-29T03:17:39.900Z,92630.00
2024-02-29T03:18:39.942Z,92631.00
2024-02-29T03:19:39.979Z,92630.00
2024-02-29T03:20:40.051Z,92629.00
2024-02-29T03:21:40.109Z,92627.00
2024-02-29T03:22:40.108Z,92626.00
2024-02-29T03:23:40.175Z,92628.00
2024-02-29T03:24:40.315Z,92629.00
2024-02-29T03:25:40.468Z,92626.00
2024-02-29T03:26:40.465Z,92625.00
2024-02-29T03:27:40.617Z,92625.00
2024-02-29T03:28:40.831Z,92623.00
2024-02-29T03:29:40.641Z,92621.00
2024-02-29T03:30:40.746Z,92620.00
2024-02-29T03:31:40.791Z,92619.00
2024-02-29T03:32:40.903Z,92619.00
2024-02-29T03:33:41.020Z,92618.00
2024-02-29T03:34:41.032Z,92616.00
2024-02-29T03:35:41.117Z,92616.00
2024-02-29T03:36:41.241Z,92615.00
2024-02-29T03:37:41.274Z,92616.00
2024-02-29T03:38:41.388Z,92614.00
2024-02-29T03:39:41.461Z,92615.00
2024-02-29T03:40:41.538Z,92613.00
2024-02-29T03:41:41.622Z,92613.00
2024-02-29T03:42:41.718Z,92611.00
2024-02-29T03:43:41.795Z,92610.00
2024-02-29T03:44:41.897Z,92609.00
2024-02-29T03:45:41.968Z,92612.00
2024-02-29T03:46:42.039Z,92611.00
2024-02-29T03:47:42.164Z,92610.00
2024-02-29T03:48:42.252Z,92610.00
2024-02-29T03:49:42.324Z,92611.00
2024-02-29T03:50:42.400Z,92611.00
2024-02-29T03:51:42.541Z,92613.00
2024-02-29T03:52:42.583Z,92613.00
2024-02-29T03:53:42.688Z,92614.00
2024-02-29T03:54:42.779Z,92612.00
2024-02-29T03:55:42.862Z,92609.00
2024-02-29T03:56:42.961Z,92610.00
2024-02-29T03:57:43.044Z,92611.00
2024-02-29T03:58:43.111Z,92609.00
2024-02-29T03:59:43.211Z,92607.00
2024-02-29T04:00:43.325Z,92606.00
2024-02-29T04:01:43.454Z,92605.00
2024-02-29T04:02:43.458Z,92606.00
2024-02-29T04:03:43.569Z,92607.00
2024-02-29T04:04:43.642Z,92605.00
2024-02-29T04:05:43.774Z,92606.00
2024-02-29T04:06:43.917Z,92603.00
2024-02-29T04:07:43.916Z,92602.00
2024-02-29T04:08:43.983Z,92605.00
2024-02-29T04:09:44.122Z,92605.00
2024-02-29T04:10:44.186Z,92606.00
2024-02-29T04:11:44.208Z,92606.00
2024-02-29T04:12:44.306Z,92602.00
2024-02-29T04:13:44.364Z,92603.00
2024-02-29T04:14:44.446Z,92601.00
2024-02-29T04:15:47.210Z,92599.00
2024-02-29T04:16:44.542Z,92599.00
2024-02-29T04:17:44.588Z,92599.00
2024-02-29T04:18:44.613Z,92599.00
2024-02-29T04:19:44.592Z,92597.00
2024-02-29T04:20:44.593Z,92593.00
2024-02-29T04:21:44.642Z,92597.00
2024-02-29T04:22:44.604Z,92598.00
2024-02-29T04:23:44.626Z,92596.00
2024-02-29T04:24:44.725Z,92596.00
2024-02-29T04:25:44.761Z,92593.00
2024-02-29T04:26:44.859Z,92595.00
2024-02-29T04:27:44.982Z,92592.00
2024-02-29T04:28:44.977Z,92593.00
2024-02-29T04:29:45.065Z,92591.00
2024-02-29T04:30:45.201Z,92595.00
2024-02-29T04:31:45.208Z,92592.00
2024-02-29T04:32:45.292Z,92592.00
2024-02-29T04:33:45.566Z,92592.00
2024-02-29T04:34:45.432Z,92590.00
2024-02-29T04:35:45.506Z,92590.00
2024-02-29T04:36:45.591Z,92591.00
2024-02-29T04:37:45.651Z,92591.00
2024-02-29T04:38:52.891Z,92591.00
2024-02-29T04:39:52.936Z,92589.00
2024-02-29T04:40:52.846Z,92590.00
2024-02-29T04:41:52.825Z,92588.00
2024-02-29T04:42:52.850Z,92591.00
2024-02-29T04:43:52.793Z,92590.00
2024-02-29T04:44:52.810Z,92591.00
2024-02-29T04:45:52.875Z,92588.00
2024-02-29T04:46:52.744Z,92588.00
2024-02-29T04:47:52.751Z,92589.00
2024-02-29T04:48:52.726Z,92589.00
2024-02-29T04:49:52.697Z,92590.00
2024-02-29T04:50:52.690Z,92591.00
2024-02-29T04:51:52.719Z,92589.00
2024-02-29T04:52:52.649Z,92588.00
2024-02-29T04:53:52.632Z,92590.00
2024-02-29T04:54:52.668Z,92589.00
2024-02-29T04:55:52.607Z,92587.00
2024-02-29T04:56:52.610Z,92588.00
2024-02-29T04:57:52.605Z,92586.00
2024-02-29T04:58:52.586Z,92586.00
2024-02-29T04:59:52.562Z,92585.00
2024-02-29T05:00:52.655Z,92589.00
2024-02-29T05:01:52.638Z,92590.00
2024-02-29T05:02:52.538Z,92589.00
2024-02-29T05:03:52.556Z,92591.00
2024-02-29T05:04:52.503Z,92591.00
2024-02-29T05:05:52.504Z,92589.00
2024-02-29T05:06:52.532Z,92592.00
2024-02-29T05:07:52.450Z,92590.00
2024-02-29T05:08:52.433Z,92591.00
2024-02-29T05:09:52.505Z,92592.00
2024-02-29T05:10:52.433Z,92592.00
2024-02-29T05:11:52.378Z,92590.00
2024-02-29T05:12:52.370Z,92590.00
2024-02-29T05:13:52.357Z,92592.00
2024-02-29T05:14:52.336Z,92589.00
2024-02-29T05:15:52.360Z,92589.00
2024-02-29T05:16:52.309Z,92592.00
2024-02-29T05:17:52.315Z,92592.00
2024-02-29T05:18:52.315Z,92595.00
2024-02-29T05:19:52.260Z,92597.00
2024-02-29T05:20:52.242Z,92595.00
2024-02-29T05:21:52.281Z,92598.00
2024-02-29T05:22:52.295Z,92596.00
2024-02-29T05:23:52.314Z,92596.00
2024-02-29T05:24:52.343Z,92595.00
2024-02-29T05:25:52.371Z,92596.00
2024-02-29T05:26:52.288Z,92595.00
2024-02-29T05:27:52.361Z,92596.00
2024-02-29T05:28:52.312Z,92596.00
2024-02-29T05:29:52.327Z,92594.00
2024-02-29T05:30:52.379Z,92593.00
2024-02-29T05:31:52.373Z,92593.00
2024-02-29T05:32:52.517Z,92595.00
2024-02-29T05:33:52.403Z,92595.00
2024-02-29T05:34:52.408Z,92596.00
2024-02-29T05:35:52.468Z,92598.00
2024-02-29T05:36:52.475Z,92600.00
2024-02-29T05:37:52.503Z,92598.00
2024-02-29T05:38:52.533Z,92601.00
2024-02-29T05:39:52.628Z,92603.00
2024-02-29T05:40:52.702Z,92605.00
2024-02-29T05:41:52.684Z,92604.00
2024-02-29T05:42:52.737Z,92603.00
2024-02-29T05:43:52.753Z,92600.00
2024-02-29T05:44:52.792Z,92602.00
2024-02-29T05:45:52.816Z,92601.00
2024-02-29T05:46:52.797Z,92602.00
2024-02-29T05:47:52.880Z,92600.00
2024-02-29T05:48:53.015Z,92601.00
2024-02-29T05:49:52.924Z,92601.00
2024-02-29T05:50:52.972Z,92599.00
2024-02-29T05:51:53.057Z,92599.00
2024-02-29T05:52:53.069Z,92600.00
2024-02-29T05:53:53.098Z,92600.00
2024-02-29T05:54:53.148Z,92601.00
2024-02-29T05:55:53.149Z,92602.00
2024-02-29T05:56:53.210Z,92601.00
2024-02-29T05:57:53.275Z,92602.00
2024-02-29T05:58:53.254Z,92605.00
2024-02-29T05:59:53.274Z,92606.00
2024-02-29T06:00:53.385Z,92607.00
2024-02-29T06:01:53.496Z,92609.00
2024-02-29T06:02:53.513Z,92611.00
2024-02-29T06:03:53.515Z,92613.00
2024-02-29T06:04:53.605Z,92613.00
2024-02-29T06:05:53.561Z,92611.00
2024-02-29T06:06:53.671Z,92611.00
2024-02-29T06:07:53.653Z,92610.00
2024-02-29T06:08:53.706Z,92612.00
2024-02-29T06:09:53.862Z,92612.00
2024-02-29T06:10:53.854Z,92616.00
2024-02-29T06:11:53.851Z,92615.00
2024-02-29T06:12:53.921Z,92614.00
2024-02-29T06:13:53.928Z,92615.00
2024-02-29T06:14:53.985Z,92617.00
2024-02-29T06:15:54.060Z,92616.00
2024-02-29T06:16:54.106Z,92617.00
2024-02-29T06:17:54.180Z,92620.00
2024-02-29T06:18:54.235Z,92623.00
2024-02-29T06:19:54.256Z,92621.00
2024-02-29T06:20:54.408Z,92621.00
2024-02-29T06:21:54.408Z,92620.00
2024-02-29T06:22:54.441Z,92620.00
2024-02-29T06:23:54.463Z,92622.00
2024-02-29T06:24:54.579Z,92621.00
2024-02-29T06:25:54.575Z,92619.00
2024-02-29T06:26:54.621Z,92619.00
2024-02-29T06:27:54.762Z,92619.00
2024-02-29T06:28:54.768Z,92617.00
2024-02-29T06:29:54.803Z,92615.00
2024-02-29T06:30:54.881Z,92615.00
2024-02-29T06:31:54.909Z,92614.00
2024-02-29T06:32:54.960Z,92615.00
2024-02-29T06:33:55.048Z,92617.00
2024-02-29T06:34:55.058Z,92619.00
2024-02-29T06:35:55.117Z,92617.00
2024-02-29T06:36:55.184Z,92615.00
2024-02-29T06:37:55.980Z,92615.00
2024-02-29T06:38:55.270Z,92613.00
2024-02-29T06:39:55.403Z,92615.00
2024-02-29T06:40:55.376Z,92615.00
2024-02-29T06:41:55.428Z,92618.00
2024-02-29T06:42:55.500Z,92616.00
2024-02-29T06:43:56.060Z,92614.00
2024-02-29T06:44:55.566Z,92614.00
2024-02-29T06:45:55.631Z,92615.00
2024-02-29T06:46:55.650Z,92617.00
2024-02-29T06:47:55.739Z,92615.00
2024-02-29T06:48:55.804Z,92616.00
2024-02-29T06:49:55.846Z,92612.00
2024-02-29T06:50:55.833Z,92611.00
2024-02-29T06:51:55.881Z,92610.00
2024-02-29T06:52:55.883Z,92613.00
2024-02-29T06:53:55.963Z,92615.00
2024-02-29T06:54:56.032Z,92613.00
2024-02-29T06:55:56.029Z,92611.00
2024-02-29T06:56:56.088Z,92611.00
2024-02-29T06:57:56.104Z,92612.00
2024-02-29T06:58:56.084Z,92614.00
2024-02-29T06:59:56.107Z,92612.00
2024-02-29T07:00:56.200Z,92612.00
2024-02-29T07:01:56.210Z,92610.00
2024-02-29T07:02:56.186Z,92611.00
2024-02-29T07:03:56.281Z,92611.00
2024-02-29T07:04:56.284Z,92612.00
2024-02-29T07:05:56.330Z,92610.00
2024-02-29T07:06:56.434Z,92613.00
2024-02-29T07:07:56.449Z,92607.00
2024-02-29T07:08:56.462Z,92603.00
2024-02-29T07:09:56.566Z,92604.00
2024-02-29T07:10:58.287Z,92601.00
2024-02-29T07:11:56.544Z,92599.00
2024-02-29T07:12:57.197Z,92599.00
2024-02-29T07:13:56.517Z,92595.00
2024-02-29T07:14:56.484Z,92594.00
2024-02-29T07:15:56.498Z,92594.00
2024-02-29T07:16:56.476Z,92596.00
2024-02-29T07:17:56.426Z,92594.00
2024-02-29T07:18:56.432Z,92592.00
2024-02-29T07:19:56.348Z,92592.00
2024-02-29T07:20:56.320Z,92592.00
2024-02-29T07:21:56.320Z,92591.00
2024-02-29T07:22:56.650Z,92592.00
2024-02-29T07:23:56.245Z,92591.00
2024-02-29T07:24:56.327Z,92590.00
2024-02-29T07:25:56.189Z,92587.00
2024-02-29T07:26:56.159Z,92585.00
2024-02-29T07:27:56.203Z,92584.00
2024-02-29T07:28:56.095Z,92586.00
2024-02-29T07:29:56.064Z,92586.00
2024-02-29T07:30:56.078Z,92587.00
2024-02-29T07:31:56.015Z,92585.00
2024-02-29T07:32:56.124Z,92586.00
2024-02-29T07:33:56.008Z,92585.00
2024-02-29T07:34:55.957Z,92585.00
2024-02-29T07:35:56.569Z,92584.00
2024-02-29T07:36:55.960Z,92585.00
2024-02-29T07:37:55.901Z,92581.00
2024-02-29T07:38:55.892Z,92583.00
2024-02-29T07:39:55.920Z,92579.00
2024-02-29T07:40:55.863Z,92578.00
2024-02-29T07:41:55.919Z,92579.00
2024-02-29T07:42:56.615Z,92581.00
2024-02-29T07:43:56.012Z,92579.00
2024-02-29T07:44:56.104Z,92577.00
2024-02-29T07:45:56.138Z,92575.00
2024-02-29T07:46:56.141Z,92575.00
2024-02-29T07:47:56.272Z,92576.00
2024-02-29T07:48:56.322Z,92576.00
2024-02-29T07:49:56.273Z,92575.00
2024-02-29T07:50:56.382Z,92573.00
2024-02-29T07:51:56.399Z,92572.00
2024-02-29T07:52:56.400Z,92568.00
2024-02-29T07:53:56.494Z,92568.00
2024-02-29T07:54:56.511Z,92567.00
2024-02-29T07:55:56.525Z,92565.00
2024-02-29T07:56:56.573Z,92565.00
2024-02-29T07:57:56.632Z,92563.00
2024-02-29T07:58:57.595Z,92563.00
2024-02-29T07:59:56.699Z,92564.00
2024-02-29T08:00:56.778Z,92563.00
2024-02-29T08:01:56.955Z,92564.00
2024-02-29T08:02:56.829Z,92561.00
2024-02-29T08:03:56.922Z,92559.00
2024-02-29T08:04:56.902Z,92560.00
2024-02-29T08:05:56.946Z,92557.00
2024-02-29T08:06:57.001Z,92558.00
2024-02-29T08:07:57.023Z,92556.00
2024-02-29T08:08:57.069Z,92557.00
2024-02-29T08:09:57.109Z,92556.00
2024-02-29T08:10:57.127Z,92555.00
2024-02-29T08:11:57.265Z,92552.00
2024-02-29T08:12:57.398Z,92552.00
2024-02-29T08:13:57.216Z,92551.00
2024-02-29T08:14:57.302Z,92548.00
2024-02-29T08:15:57.325Z,92549.00
2024-02-29T08:16:57.326Z,92548.00
2024-02-29T08:17:57.432Z,92549.00
2024-02-29T08:18:57.443Z,92546.00
2024-02-29T08:19:57.569Z,92545.00
2024-02-29T08:20:57.458Z,92543.00
2024-02-29T08:21:57.542Z,92544.00
2024-02-29T08:22:57.518Z,92542.00
2024-02-29T08:23:57.528Z,92542.00
2024-02-29T08:24:57.577Z,92539.00
2024-02-29T08:25:57.545Z,92538.00
2024-02-29T08:26:57.542Z,92536.00
2024-02-29T08:27:57.559Z,92532.00
2024-02-29T08:28:57.533Z,92532.00
2024-02-29T08:29:57.516Z,92528.00
2024-02-29T08:30:57.553Z,92527.00
2024-02-29T08:31:57.533Z,92524.00
2024-02-29T08:32:57.496Z,92524.00
2024-02-29T08:33:57.502Z,92522.00
2024-02-29T08:34:57.433Z,92520.00
2024-02-29T08:35:57.408Z,92519.00
2024-02-29T08:36:57.406Z,92518.00
2024-02-29T08:37:58.159Z,92515.00
2024-02-29T08:38:57.329Z,92512.00
2024-02-29T08:39:57.343Z,92508.00
2024-02-29T08:40:57.262Z,92507.00
2024-02-29T08:41:57.259Z,92505.00
2024-02-29T08:42:57.313Z,92504.00
2024-02-29T08:43:57.226Z,92503.00
2024-02-29T08:44:57.200Z,92503.00
2024-02-29T08:45:57.189Z,92502.00
2024-02-29T08:46:57.105Z,92498.00
2024-02-29T08:47:57.144Z,92496.00
2024-02-29T08:48:58.176Z,92492.00
2024-02-29T08:49:57.078Z,92489.00
2024-02-29T08:50:57.055Z,92489.00
2024-02-29T08:51:57.081Z,92489.00
2024-02-29T08:52:57.053Z,92487.00
2024-02-29T08:53:57.141Z,92483.00
2024-02-29T08:55:18.110Z,92476.00
2024-02-29T08:55:57.027Z,92469.00
2024-02-29T08:56:56.976Z,92464.00
2024-02-29T08:57:56.962Z,92461.00
2024-02-29T08:58:56.924Z,92463.00
2024-02-29T08:59:56.912Z,92461.00
2024-02-29T09:00:57.050Z,92461.00
2024-02-29T09:01:57.024Z,92457.00
2024-02-29T09:02:56.854Z,92454.00
2024-02-29T09:03:56.856Z,92453.00
2024-02-29T09:04:56.829Z,92450.00
2024-02-29T09:05:56.807Z,92448.00
2024-02-29T09:06:56.789Z,92448.00
2024-02-29T09:07:56.774Z,92447.00
2024-02-29T09:08:56.778Z,92447.00
2024-02-29T09:09:56.782Z,92442.00
2024-02-29T09:10:56.781Z,92442.00
2024-02-29T09:11:56.702Z,92437.00
2024-02-29T09:12:56.717Z,92436.00
2024-02-29T09:13:56.709Z,92434.00
2024-02-29T09:14:56.650Z,92432.00
2024-02-29T09:15:56.679Z,92431.00
2024-02-29T09:16:56.622Z,92428.00
2024-02-29T09:17:56.706Z,92425.00
2024-02-29T09:18:56.635Z,92422.00
2024-02-29T09:19:56.587Z,92421.00
2024-02-29T09:20:56.532Z,92417.00
2024-02-29T09:21:56.535Z,92418.00
2024-02-29T09:22:56.495Z,92412.00
2024-02-29T09:23:56.484Z,92412.00
2024-02-29T09:24:56.533Z,92409.00
2024-02-29T09:25:56.471Z,92407.00
2024-02-29T09:26:56.441Z,92404.00
2024-02-29T09:27:56.433Z,92401.00
2024-02-29T09:28:56.400Z,92398.00
2024-02-29T09:29:58.423Z,92398.00
2024-02-29T09:30:56.380Z,92398.00
2024-02-29T09:31:56.364Z,92394.00
2024-02-29T09:32:57.113Z,92393.00
2024-02-29T09:33:57.640Z,92391.00
2024-02-29T09:34:56.633Z,92386.00
2024-02-29T09:35:56.674Z,92384.00
2024-02-29T09:36:56.786Z,92380.00
2024-02-29T09:37:56.747Z,92378.00
2024-02-29T09:38:56.805Z,92378.00
2024-02-29T09:39:56.905Z,92375.00
2024-02-29T09:41:03.180Z,92374.00
2024-02-29T09:42:56.918Z,92371.00
2024-02-29T09:43:56.853Z,92367.00
2024-02-29T09:44:56.827Z,92363.00
2024-02-29T09:45:56.838Z,92362.00
2024-02-29T09:46:56.778Z,92361.00
2024-02-29T09:47:56.824Z,92359.00
2024-02-29T09:48:56.756Z,92356.00
2024-02-29T09:50:01.837Z,92352.00
2024-02-29T09:50:57.702Z,92350.00
2024-02-29T09:51:56.726Z,92346.00
2024-02-29T09:52:56.658Z,92344.00
2024-02-29T09:53:56.639Z,92343.00
2024-02-29T09:54:56.673Z,92341.00
2024-02-29T09:55:56.591Z,92341.00
2024-02-29T09:56:56.570Z,92338.00
2024-02-29T09:57:56.537Z,92334.00
2024-02-29T09:58:57.044Z,92332.00
2024-02-29T09:59:56.479Z,92330.00
2024-02-29T10:00:56.559Z,92329.00
2024-02-29T10:01:56.527Z,92330.00
2024-02-29T10:02:56.431Z,92330.00
2024-02-29T10:03:56.475Z,92327.00
2024-02-29T10:04:56.466Z,92324.00
2024-02-29T10:05:56.478Z,92321.00
2024-02-29T10:06:56.540Z,92320.00
2024-02-29T10:07:57.132Z,92320.00
2024-02-29T10:08:56.514Z,92317.00
2024-02-29T10:09:56.593Z,92319.00
2024-02-29T10:10:56.677Z,92318.00
2024-02-29T10:11:56.588Z,92315.00
2024-02-29T10:12:57.111Z,92312.00
2024-02-29T10:13:56.574Z,92308.00
2024-02-29T10:14:56.588Z,92305.00
2024-02-29T10:15:56.626Z,92305.00
2024-02-29T10:16:56.615Z,92302.00
2024-02-29T10:17:56.678Z,92299.00
2024-02-29T10:18:56.764Z,92299.00
2024-02-29T10:19:56.668Z,92297.00
2024-02-29T10:20:56.665Z,92295.00
2024-02-29T10:21:56.712Z,92291.00
2024-02-29T10:22:56.677Z,92290.00
2024-02-29T10:23:56.686Z,92287.00
2024-02-29T10:24:56.729Z,92283.00
2024-02-29T10:25:57.636Z,92282.00
2024-02-29T10:26:56.722Z,92280.00
2024-02-29T10:27:56.760Z,92276.00
2024-02-29T10:28:56.767Z,92276.00
2024-02-29T10:29:56.776Z,92272.00
2024-02-29T10:30:58.585Z,92273.00
2024-02-29T10:31:56.798Z,92270.00
2024-02-29T10:32:56.871Z,92266.00
2024-02-29T10:33:56.879Z,92266.00
2024-02-29T10:34:56.843Z,92266.00
2024-02-29T10:35:57.665Z,92262.00
2024-02-29T10:36:57.009Z,92259.00
2024-02-29T10:37:56.868Z,92259.00
2024-02-29T10:38:57.566Z,92256.00
2024-02-29T10:39:56.888Z,92253.00
2024-02-29T10:40:56.875Z,92250.00
2024-02-29T10:41:56.942Z,92249.00
2024-02-29T10:42:57.150Z,92251.00
2024-02-29T10:43:56.869Z,92250.00
2024-02-29T10:44:57.608Z,92247.00
2024-02-29T10:45:56.886Z,92246.00
2024-02-29T10:46:57.638Z,92247.00
2024-02-29T10:47:56.885Z,92242.00
2024-02-29T10:48:56.852Z,92239.00
2024-02-29T10:49:56.808Z,92239.00
2024-02-29T10:50:56.794Z,92236.00
2024-02-29T10:51:56.804Z,92233.00
2024-02-29T10:52:56.767Z,92232.00
2024-02-29T10:53:56.747Z,92232.00
2024-02-29T10:54:56.897Z,92229.00
2024-02-29T10:55:56.711Z,92227.00
2024-02-29T10:56:56.686Z,92228.00
2024-02-29T10:57:56.682Z,92226.00
2024-02-29T10:58:56.644Z,92221.00
2024-02-29T10:59:56.632Z,92220.00
2024-02-29T11:00:57.744Z,92217.00
2024-02-29T11:01:56.694Z,92217.00
2024-02-29T11:02:58.392Z,92217.00
2024-02-29T11:03:56.548Z,92214.00
2024-02-29T11:04:56.522Z,92214.00
2024-02-29T11:05:56.512Z,92212.00
2024-02-29T11:06:56.546Z,92210.00
2024-02-29T11:07:56.443Z,92207.00
2024-02-29T11:08:56.436Z,92204.00
2024-02-29T11:09:56.449Z,92203.00
2024-02-29T11:10:56.432Z,92198.00
2024-02-29T11:11:56.381Z,92198.00
2024-02-29T11:12:56.406Z,92195.00
2024-02-29T11:13:56.364Z,92194.00
2024-02-29T11:14:56.345Z,92191.00
2024-02-29T11:15:56.351Z,92188.00
2024-02-29T11:16:56.327Z,92184.00
2024-02-29T11:17:56.369Z,92184.00
2024-02-29T11:18:56.333Z,92182.00
2024-02-29T11:19:57.685Z,92179.00
2024-02-29T11:20:56.298Z,92177.00
2024-02-29T11:21:56.336Z,92174.00
2024-02-29T11:23:56.283Z,92171.00
2024-02-29T11:24:56.325Z,92168.00
2024-02-29T11:25:56.347Z,92164.00
2024-02-29T11:26:56.291Z,92160.00
2024-02-29T11:27:56.331Z,92161.00
2024-02-29T11:28:57.078Z,92158.00
2024-02-29T11:29:56.323Z,92156.00
2024-02-29T11:30:56.350Z,92156.00
2024-02-29T11:31:56.338Z,92156.00
2024-02-29T11:32:56.391Z,92152.00
2024-02-29T11:33:56.382Z,92150.00
2024-02-29T11:34:56.362Z,92150.00
2024-02-29T11:35:56.397Z,92148.00
2024-02-29T11:36:56.407Z,92145.00
2024-02-29T11:37:57.353Z,92145.00
2024-02-29T11:38:56.324Z,92142.00
2024-02-29T11:39:56.324Z,92140.00
2024-02-29T11:40:56.266Z,92138.00
2024-02-29T11:41:56.238Z,92137.00
2024-02-29T11:42:56.234Z,92136.00
2024-02-29T11:43:56.162Z,92132.00
2024-02-29T11:44:56.137Z,92131.00
2024-02-29T11:45:56.155Z,92130.00
2024-02-29T11:46:56.065Z,92128.00